Time;durP1;ratioP1;P1;durP2;ratioP2;P2;SDS_P1;SDS_P2;PMS_P1;PMS_P2;Temp;Humidity;BMP_temperature;BMP_pressure;BME280_temperature;BME280_humidity;BME280_pressure;Samples;Min_cycle;Max_cycle;Signal;HPM_P1;HPM_P2
2023/12/20 00:01:59;;;;;;;8.37;5.40;;;8.90;99.90;;;;;;5135948;27;20438;-69
2023/12/20 00:04:25;;;;;;;10.43;6.10;;;8.90;99.90;;;;;;5135569;27;20935;-69
2023/12/20 00:06:52;;;;;;;8.17;5.63;;;8.90;99.90;;;;;;5135854;27;20446;-70
2023/12/20 00:09:20;;;;;;;10.13;5.77;;;8.90;99.90;;;;;;5136923;27;20535;-69
2023/12/20 00:11:47;;;;;;;8.77;5.63;;;8.90;99.90;;;;;;5135853;27;20449;-69
2023/12/20 00:14:14;;;;;;;11.13;6.47;;;8.90;99.90;;;;;;5136085;27;20441;-69
2023/12/20 00:16:40;;;;;;;9.83;6.60;;;8.90;99.90;;;;;;5135875;27;20438;-70
2023/12/20 00:19:07;;;;;;;8.70;5.87;;;8.90;99.90;;;;;;5149972;27;20484;-69
2023/12/20 00:21:34;;;;;;;7.63;6.07;;;8.90;99.90;;;;;;5139577;27;20437;-70
2023/12/20 00:24:01;;;;;;;9.73;6.23;;;8.80;99.90;;;;;;5137365;27;20434;-70
2023/12/20 00:26:29;;;;;;;9.20;6.30;;;8.80;99.90;;;;;;5136812;27;20461;-69
2023/12/20 00:28:55;;;;;;;8.00;6.27;;;8.90;99.90;;;;;;5135862;27;20445;-69
2023/12/20 00:31:22;;;;;;;7.47;6.63;;;8.80;99.90;;;;;;5136280;27;20450;-70
2023/12/20 00:33:49;;;;;;;13.97;7.37;;;8.90;99.90;;;;;;5136147;27;20868;-69
2023/12/20 00:36:16;;;;;;;10.70;8.20;;;8.90;99.90;;;;;;5117601;27;20529;-70
2023/12/20 00:38:42;;;;;;;10.20;7.80;;;8.90;99.90;;;;;;5135482;27;20853;-69
2023/12/20 00:41:09;;;;;;;12.77;9.13;;;8.90;99.90;;;;;;5135494;27;20465;-69
2023/12/20 00:43:38;;;;;;;12.20;9.47;;;8.90;99.90;;;;;;5135300;27;20438;-69
2023/12/20 00:46:04;;;;;;;15.47;10.07;;;8.90;99.90;;;;;;5135226;27;20919;-69
2023/12/20 00:48:31;;;;;;;18.20;10.97;;;8.80;99.90;;;;;;5135202;27;20434;-69
2023/12/20 00:50:58;;;;;;;14.97;10.67;;;8.80;99.90;;;;;;5135004;27;21011;-69
2023/12/20 00:53:25;;;;;;;15.50;9.60;;;8.80;99.90;;;;;;5134996;27;20485;-69
2023/12/20 00:55:52;;;;;;;15.17;10.00;;;8.70;99.90;;;;;;5135358;27;20449;-69
2023/12/20 00:58:18;;;;;;;14.23;10.90;;;8.70;99.90;;;;;;5134270;27;20474;-69
2023/12/20 01:00:46;;;;;;;14.10;10.53;;;8.60;99.90;;;;;;5134368;27;20466;-69
2023/12/20 01:03:14;;;;;;;17.77;11.70;;;8.70;99.90;;;;;;5134686;27;20441;-68
2023/12/20 01:05:41;;;;;;;20.33;10.67;;;8.60;99.90;;;;;;5134590;27;20446;-69
2023/12/20 01:08:07;;;;;;;17.23;11.10;;;8.60;99.90;;;;;;5134362;27;20498;-69
2023/12/20 01:10:35;;;;;;;18.70;11.67;;;8.60;99.90;;;;;;5134659;27;20458;-69
2023/12/20 01:13:02;;;;;;;16.33;10.63;;;8.60;99.90;;;;;;5134455;27;20437;-69
2023/12/20 01:15:29;;;;;;;15.20;10.27;;;8.60;99.90;;;;;;5134739;27;20468;-69
2023/12/20 01:17:59;;;;;;;20.13;10.80;;;8.50;99.90;;;;;;5134601;27;20489;-69
2023/12/20 01:20:25;;;;;;;14.80;8.70;;;8.40;99.90;;;;;;5134147;27;21034;-69
2023/12/20 01:22:52;;;;;;;14.00;9.20;;;8.40;99.90;;;;;;5134664;27;20442;-69
2023/12/20 01:25:19;;;;;;;11.47;8.00;;;8.30;99.90;;;;;;5134588;27;20834;-69
2023/12/20 01:27:46;;;;;;;18.53;7.53;;;8.30;99.90;;;;;;5134315;27;20441;-69
2023/12/20 01:30:13;;;;;;;9.97;7.33;;;8.20;99.90;;;;;;5134299;28;20458;-69
2023/12/20 01:32:40;;;;;;;13.13;7.13;;;8.20;99.90;;;;;;5134196;28;20541;-69
2023/12/20 01:35:09;;;;;;;15.80;7.23;;;8.00;99.90;;;;;;5137658;27;20442;-69
2023/12/20 01:37:35;;;;;;;15.40;7.13;;;8.00;99.90;;;;;;5138212;27;20446;-69
2023/12/20 01:40:03;;;;;;;12.47;7.70;;;7.90;99.90;;;;;;5138465;27;20466;-69
2023/12/20 01:42:29;;;;;;;21.53;7.50;;;7.80;99.90;;;;;;5138648;27;20442;-69
2023/12/20 01:44:56;;;;;;;18.13;8.43;;;7.80;99.90;;;;;;5138581;27;20520;-70
2023/12/20 01:47:23;;;;;;;12.57;7.23;;;7.80;99.90;;;;;;5120317;27;20450;-69
2023/12/20 01:49:50;;;;;;;10.53;5.77;;;7.80;99.90;;;;;;5138652;27;20951;-69
2023/12/20 01:52:20;;;;;;;16.00;5.80;;;7.80;99.90;;;;;;5138399;27;20862;-70
2023/12/20 01:54:48;;;;;;;14.83;6.77;;;7.70;99.90;;;;;;5138452;27;20795;-69
2023/12/20 01:57:16;;;;;;;15.43;5.90;;;7.70;99.90;;;;;;5138211;27;20525;-69
2023/12/20 01:59:43;;;;;;;9.70;6.80;;;7.80;99.90;;;;;;5138158;27;20900;-69
2023/12/20 02:02:12;;;;;;;11.57;4.87;;;7.80;99.90;;;;;;5138374;27;20442;-69
2023/12/20 02:04:39;;;;;;;14.67;5.27;;;7.80;99.90;;;;;;5138305;27;20444;-69
2023/12/20 02:07:07;;;;;;;18.47;4.57;;;7.70;99.90;;;;;;5119587;27;20474;-70
2023/12/20 02:09:37;;;;;;;19.43;5.70;;;7.70;99.90;;;;;;5138031;27;20450;-69
2023/12/20 02:12:04;;;;;;;20.60;5.30;;;7.70;99.90;;;;;;5139245;27;20532;-69
2023/12/20 02:14:31;;;;;;;11.40;4.40;;;7.70;99.90;;;;;;5137899;27;20482;-69
2023/12/20 02:16:58;;;;;;;13.80;4.80;;;7.70;99.90;;;;;;5138108;27;20441;-69
2023/12/20 02:19:25;;;;;;;12.30;3.80;;;7.60;99.90;;;;;;5119620;27;20493;-69
2023/12/20 02:22:06;;;;;;;13.60;4.50;;;7.60;99.90;;;;;;5137820;27;20445;-69
2023/12/20 02:24:33;;;;;;;12.90;4.17;;;7.60;99.90;;;;;;5138024;27;20434;-69
2023/12/20 02:27:00;;;;;;;8.77;3.70;;;7.60;99.90;;;;;;5137862;27;20434;-69
2023/12/20 02:29:27;;;;;;;14.67;3.60;;;7.60;99.90;;;;;;5137726;27;20850;-69
2023/12/20 02:31:54;;;;;;;15.07;3.90;;;7.60;99.90;;;;;;5147020;27;20445;-70
2023/12/20 02:34:21;;;;;;;8.90;2.97;;;7.60;99.90;;;;;;5144175;27;20442;-69
2023/12/20 02:36:47;;;;;;;9.27;3.10;;;7.60;99.90;;;;;;5140335;27;20437;-69
2023/12/20 02:39:16;;;;;;;12.77;3.77;;;7.60;99.90;;;;;;5138490;27;20486;-69
2023/12/20 02:41:42;;;;;;;15.43;3.70;;;7.60;99.90;;;;;;5137838;27;20486;-69
2023/12/20 02:44:09;;;;;;;12.60;3.20;;;7.60;99.90;;;;;;5137830;27;20987;-69
2023/12/20 02:46:36;;;;;;;12.10;2.87;;;7.60;99.90;;;;;;5137619;27;20434;-69
2023/12/20 02:49:02;;;;;;;13.30;3.90;;;7.60;99.90;;;;;;5137605;27;20437;-70
2023/12/20 02:51:29;;;;;;;12.10;3.23;;;7.50;99.90;;;;;;5137183;27;20444;-69
2023/12/20 02:53:56;;;;;;;11.67;2.50;;;7.60;99.90;;;;;;5137488;27;20461;-69
2023/12/20 02:56:24;;;;;;;9.00;2.73;;;7.60;99.90;;;;;;5137369;27;20460;-69
2023/12/20 02:58:51;;;;;;;15.20;2.97;;;7.60;99.90;;;;;;5137467;27;20474;-68
2023/12/20 03:01:17;;;;;;;20.57;3.67;;;7.60;99.90;;;;;;5136841;27;20449;-69
2023/12/20 03:03:44;;;;;;;14.50;3.40;;;7.50;99.90;;;;;;5118700;27;20466;-69
2023/12/20 03:06:11;;;;;;;13.20;3.40;;;7.50;99.90;;;;;;5137159;27;20466;-69
2023/12/20 03:08:38;;;;;;;15.63;3.50;;;7.50;99.90;;;;;;5137119;27;20449;-69
2023/12/20 03:11:05;;;;;;;10.13;2.90;;;7.50;99.90;;;;;;5136951;27;20469;-69
2023/12/20 03:13:33;;;;;;;10.63;3.20;;;7.40;99.90;;;;;;5137125;27;20490;-69
2023/12/20 03:16:00;;;;;;;8.73;2.87;;;7.40;99.90;;;;;;5136916;27;20445;-69
2023/12/20 03:18:28;;;;;;;10.90;3.77;;;7.30;99.90;;;;;;5137000;27;20473;-69
2023/12/20 03:20:55;;;;;;;18.33;4.00;;;7.30;99.90;;;;;;5136861;27;20545;-69
2023/12/20 03:23:21;;;;;;;9.47;3.27;;;7.30;99.90;;;;;;5136733;27;20815;-69
2023/12/20 03:25:48;;;;;;;10.20;3.30;;;7.30;99.90;;;;;;5136819;27;20444;-69
2023/12/20 03:28:16;;;;;;;10.63;3.17;;;7.20;99.90;;;;;;5136746;27;20460;-69
2023/12/20 03:30:44;;;;;;;15.30;3.23;;;7.20;99.90;;;;;;5136179;27;20490;-69
2023/12/20 03:33:11;;;;;;;14.90;5.70;;;7.20;99.90;;;;;;5136640;27;20438;-69
2023/12/20 03:35:38;;;;;;;11.57;4.77;;;7.30;99.90;;;;;;5143028;27;20437;-69
2023/12/20 03:38:04;;;;;;;10.83;3.70;;;7.20;99.90;;;;;;5145126;27;20437;-69
2023/12/20 03:40:31;;;;;;;10.43;4.30;;;7.20;99.90;;;;;;5144016;27;20454;-69
2023/12/20 03:42:58;;;;;;;15.33;3.67;;;7.30;99.90;;;;;;5143928;27;20438;-69
2023/12/20 03:45:24;;;;;;;6.30;3.13;;;7.20;99.90;;;;;;5143618;27;20924;-69
2023/12/20 03:47:54;;;;;;;13.07;3.87;;;7.10;99.90;;;;;;5142228;27;20449;-69
2023/12/20 03:50:22;;;;;;;9.00;3.50;;;7.10;99.90;;;;;;5141873;27;20848;-69
2023/12/20 03:52:49;;;;;;;12.90;3.60;;;7.10;99.90;;;;;;5139143;27;20510;-70
2023/12/20 03:55:16;;;;;;;12.73;3.47;;;7.10;99.90;;;;;;5139345;27;20438;-69
2023/12/20 03:57:43;;;;;;;11.50;4.13;;;7.20;99.90;;;;;;5138400;27;20434;-69
2023/12/20 04:00:11;;;;;;;12.43;3.53;;;7.10;99.90;;;;;;5137452;27;20885;-69
2023/12/20 04:02:38;;;;;;;17.53;4.13;;;7.10;99.90;;;;;;5119393;27;20437;-69
2023/12/20 04:05:07;;;;;;;9.70;3.30;;;7.10;99.90;;;;;;5136560;27;20441;-69
2023/12/20 04:07:34;;;;;;;11.33;4.30;;;7.10;99.90;;;;;;5118387;27;20478;-69
2023/12/20 04:10:01;;;;;;;15.13;3.80;;;7.10;99.90;;;;;;5136671;27;20461;-69
2023/12/20 04:12:29;;;;;;;13.50;3.97;;;7.10;99.90;;;;;;5136545;27;20449;-69
2023/12/20 04:14:55;;;;;;;21.53;5.30;;;7.10;99.90;;;;;;5118615;27;20447;-69
2023/12/20 04:17:23;;;;;;;23.43;5.70;;;7.10;99.90;;;;;;5137202;27;20460;-69
2023/12/20 04:19:49;;;;;;;17.03;4.37;;;7.10;99.90;;;;;;5136629;27;20573;-69
2023/12/20 04:22:18;;;;;;;14.07;5.13;;;7.10;99.90;;;;;;5136372;27;20494;-69
2023/12/20 04:24:45;;;;;;;12.43;5.70;;;7.10;99.90;;;;;;5101136;27;20946;-69
2023/12/20 04:27:12;;;;;;;17.03;5.70;;;7.10;99.90;;;;;;5118408;27;20437;-69
2023/12/20 04:29:38;;;;;;;17.33;4.70;;;7.10;99.90;;;;;;5136247;27;20485;-69
2023/12/20 04:32:06;;;;;;;11.50;4.63;;;7.10;99.90;;;;;;5136052;27;20441;-69
2023/12/20 04:34:33;;;;;;;13.77;5.30;;;7.10;99.90;;;;;;5136057;27;20850;-69
2023/12/20 04:37:01;;;;;;;15.40;4.90;;;7.00;99.90;;;;;;5135575;27;20449;-69
2023/12/20 04:39:29;;;;;;;12.60;4.80;;;7.00;99.90;;;;;;5135730;27;20489;-69
2023/12/20 04:41:56;;;;;;;19.03;5.37;;;7.00;99.90;;;;;;5135892;27;20446;-69
2023/12/20 04:44:23;;;;;;;15.87;5.57;;;7.00;99.90;;;;;;5135792;27;20442;-69
2023/12/20 04:46:50;;;;;;;15.83;5.77;;;6.90;99.90;;;;;;5135580;27;20549;-69
2023/12/20 04:49:17;;;;;;;12.50;4.73;;;6.90;99.90;;;;;;5146016;27;20479;-68
2023/12/20 04:51:43;;;;;;;16.47;5.23;;;6.90;99.90;;;;;;5141363;27;20444;-70
2023/12/20 04:54:10;;;;;;;16.07;4.93;;;6.90;99.90;;;;;;5136782;27;20449;-69
2023/12/20 04:56:39;;;;;;;12.33;4.90;;;6.80;99.90;;;;;;5136348;27;20477;-68
2023/12/20 04:59:05;;;;;;;11.27;5.20;;;6.90;99.90;;;;;;5135290;27;21009;-68
2023/12/20 05:01:32;;;;;;;16.40;5.83;;;6.90;99.90;;;;;;5117162;27;20482;-69
2023/12/20 05:03:59;;;;;;;19.97;5.07;;;6.90;99.90;;;;;;5135632;27;20441;-69
2023/12/20 05:06:25;;;;;;;12.53;5.50;;;6.90;99.90;;;;;;5135444;27;20445;-69
2023/12/20 05:08:52;;;;;;;10.70;5.03;;;6.90;99.90;;;;;;5134119;27;20437;-68
2023/12/20 05:11:19;;;;;;;16.37;5.30;;;6.80;99.90;;;;;;5135178;27;20441;-69
2023/12/20 05:13:47;;;;;;;17.67;5.70;;;6.80;99.90;;;;;;5135029;27;20814;-69
2023/12/20 05:16:17;;;;;;;25.83;5.43;;;6.80;99.90;;;;;;5135344;27;20527;-69
2023/12/20 05:18:44;;;;;;;15.00;4.67;;;6.90;99.90;;;;;;5134921;27;20858;-69
2023/12/20 05:21:10;;;;;;;16.00;5.70;;;6.90;99.90;;;;;;5134929;27;20465;-69
2023/12/20 05:23:37;;;;;;;17.20;5.60;;;6.90;99.90;;;;;;5134924;27;20950;-69
2023/12/20 05:26:04;;;;;;;13.33;5.10;;;6.90;99.90;;;;;;5134969;27;20445;-69
2023/12/20 05:28:31;;;;;;;16.80;5.53;;;6.90;99.90;;;;;;5134551;27;20962;-69
2023/12/20 05:30:59;;;;;;;16.90;5.77;;;7.00;99.90;;;;;;5135016;28;20462;-69
2023/12/20 05:33:26;;;;;;;18.63;5.87;;;7.00;99.90;;;;;;5134972;28;20442;-69
2023/12/20 05:35:53;;;;;;;16.77;4.70;;;7.10;99.90;;;;;;5134740;28;20449;-69
2023/12/20 05:38:20;;;;;;;24.87;5.60;;;7.00;99.90;;;;;;5099652;28;20438;-69
2023/12/20 05:40:47;;;;;;;17.90;6.40;;;7.10;99.90;;;;;;5134469;28;20492;-69
2023/12/20 05:43:14;;;;;;;20.03;6.10;;;7.10;99.90;;;;;;5134565;28;20464;-69
2023/12/20 05:45:40;;;;;;;18.13;5.40;;;7.10;99.90;;;;;;5134736;28;20445;-69
2023/12/20 05:48:09;;;;;;;15.73;6.27;;;7.10;99.90;;;;;;5134559;28;20464;-70
2023/12/20 05:50:36;;;;;;;16.37;7.57;;;7.10;99.90;;;;;;5134490;28;20843;-69
2023/12/20 05:53:03;;;;;;;26.73;6.47;;;7.10;99.90;;;;;;5134214;28;21010;-70
2023/12/20 05:55:30;;;;;;;13.17;6.10;;;7.10;99.90;;;;;;5135389;28;20433;-70
2023/12/20 05:57:57;;;;;;;17.83;6.20;;;7.10;99.90;;;;;;5134443;28;20440;-70
2023/12/20 06:00:25;;;;;;;23.97;6.43;;;7.10;99.90;;;;;;5134194;28;20478;-69
2023/12/20 06:02:51;;;;;;;17.23;6.30;;;7.10;99.90;;;;;;5134586;28;20491;-69
2023/12/20 06:05:20;;;;;;;10.60;5.67;;;7.10;99.90;;;;;;5116516;28;20445;-69
2023/12/20 06:07:48;;;;;;;13.93;4.83;;;7.20;99.90;;;;;;5134256;28;20846;-69
2023/12/20 06:10:14;;;;;;;17.10;5.47;;;7.20;99.90;;;;;;5134219;28;20454;-69
2023/12/20 06:12:41;;;;;;;16.60;5.53;;;7.20;99.90;;;;;;5115760;28;20864;-69
2023/12/20 06:15:09;;;;;;;15.40;5.77;;;7.20;99.90;;;;;;5134217;28;20438;-69
2023/12/20 06:17:36;;;;;;;17.50;6.73;;;7.20;99.90;;;;;;5134209;28;20437;-69
2023/12/20 06:20:07;;;;;;;15.83;4.80;;;7.20;99.90;;;;;;5134930;27;20481;-69
2023/12/20 06:22:35;;;;;;;10.17;5.20;;;7.20;99.90;;;;;;5137584;27;20794;-69
2023/12/20 06:25:02;;;;;;;9.27;5.00;;;7.20;99.90;;;;;;5138114;27;20469;-69
2023/12/20 06:27:29;;;;;;;14.47;4.40;;;7.20;99.90;;;;;;5138311;27;20438;-70
2023/12/20 06:29:57;;;;;;;17.20;7.77;;;7.30;99.90;;;;;;5137917;27;20465;-69
2023/12/20 06:32:24;;;;;;;19.47;6.10;;;7.20;99.90;;;;;;5138524;27;20445;-70
2023/12/20 06:34:51;;;;;;;20.83;5.67;;;7.30;99.90;;;;;;5137670;27;20438;-69
2023/12/20 06:37:17;;;;;;;17.73;5.60;;;7.20;99.90;;;;;;5137862;27;20458;-70
2023/12/20 06:39:46;;;;;;;12.47;5.90;;;7.20;99.90;;;;;;5137636;27;20489;-69
2023/12/20 06:42:13;;;;;;;18.57;6.37;;;7.30;99.90;;;;;;5137549;27;20468;-70
2023/12/20 06:44:40;;;;;;;20.00;5.53;;;7.30;99.90;;;;;;5137356;27;20453;-70
2023/12/20 06:47:06;;;;;;;23.67;6.10;;;7.30;99.90;;;;;;5137387;27;20448;-69
2023/12/20 06:49:33;;;;;;;17.10;5.70;;;7.30;99.90;;;;;;5119737;27;20476;-69
2023/12/20 06:52:00;;;;;;;15.50;6.60;;;7.30;99.90;;;;;;5137394;27;20461;-69
2023/12/20 06:54:27;;;;;;;17.70;6.00;;;7.30;99.90;;;;;;5136758;27;20445;-70
2023/12/20 06:56:55;;;;;;;17.70;5.30;;;7.20;99.90;;;;;;5118853;27;20935;-70
2023/12/20 06:59:22;;;;;;;19.23;5.50;;;7.30;99.90;;;;;;5137044;27;20457;-69
2023/12/20 07:01:49;;;;;;;17.83;6.20;;;7.40;99.90;;;;;;5137292;27;20442;-70
2023/12/20 07:04:19;;;;;;;15.13;6.50;;;7.30;99.90;;;;;;5143977;27;20445;-69
2023/12/20 07:06:46;;;;;;;17.00;6.13;;;7.30;99.90;;;;;;5146353;27;20487;-70
2023/12/20 07:09:15;;;;;;;17.73;5.80;;;7.30;99.90;;;;;;5142144;27;20465;-70
2023/12/20 07:11:41;;;;;;;21.77;6.83;;;7.30;99.90;;;;;;5138819;27;20442;-70
2023/12/20 07:14:10;;;;;;;24.00;6.83;;;7.40;99.90;;;;;;5118607;27;20862;-70
2023/12/20 07:16:36;;;;;;;11.80;5.83;;;7.40;99.90;;;;;;5136992;27;20442;-70
2023/12/20 07:19:03;;;;;;;20.50;7.07;;;7.40;99.90;;;;;;5137151;27;20441;-69
2023/12/20 07:21:30;;;;;;;24.20;6.53;;;7.30;99.90;;;;;;5137023;27;20484;-69
2023/12/20 07:23:57;;;;;;;14.30;6.80;;;7.30;99.90;;;;;;5137092;27;20451;-70
2023/12/20 07:26:24;;;;;;;15.87;7.50;;;7.30;99.90;;;;;;5137637;27;20442;-69
2023/12/20 07:28:50;;;;;;;14.60;5.97;;;7.40;99.90;;;;;;5136878;27;20970;-69
2023/12/20 07:31:19;;;;;;;25.00;6.57;;;7.30;99.90;;;;;;5136373;27;20445;-70
2023/12/20 07:33:46;;;;;;;12.07;6.33;;;7.30;99.90;;;;;;5136354;27;20442;-69
2023/12/20 07:36:13;;;;;;;20.37;7.57;;;7.30;99.90;;;;;;5136901;27;20450;-69
2023/12/20 07:38:41;;;;;;;16.00;6.27;;;7.30;99.90;;;;;;5137484;27;20437;-70
2023/12/20 07:41:10;;;;;;;18.80;7.07;;;7.40;99.90;;;;;;5137091;27;20477;-69
2023/12/20 07:43:37;;;;;;;16.33;6.73;;;7.30;99.90;;;;;;5136833;27;20448;-70
2023/12/20 07:46:07;;;;;;;14.80;5.60;;;7.30;99.90;;;;;;5137692;27;20438;-70
2023/12/20 07:48:36;;;;;;;17.13;6.27;;;7.30;99.90;;;;;;5136506;27;20444;-70
2023/12/20 07:51:03;;;;;;;15.17;6.63;;;7.20;99.90;;;;;;5136942;27;20493;-69
2023/12/20 07:53:30;;;;;;;16.40;7.43;;;7.20;99.90;;;;;;5136486;27;20450;-69
2023/12/20 07:55:56;;;;;;;16.33;6.80;;;7.20;99.90;;;;;;5136701;27;20442;-70
2023/12/20 07:58:23;;;;;;;23.07;6.63;;;7.30;99.90;;;;;;5136810;27;20487;-70
2023/12/20 08:00:50;;;;;;;14.93;6.30;;;7.30;99.90;;;;;;5136795;27;20477;-70
2023/12/20 08:03:17;;;;;;;18.70;6.03;;;7.20;99.90;;;;;;5137064;27;20446;-69
2023/12/20 08:05:45;;;;;;;15.17;5.43;;;7.20;99.90;;;;;;5118287;27;20448;-70
2023/12/20 08:08:12;;;;;;;21.17;6.30;;;7.20;99.90;;;;;;5136449;27;20923;-70
2023/12/20 08:10:38;;;;;;;12.03;5.47;;;7.20;99.90;;;;;;5118030;27;20486;-70
2023/12/20 08:13:05;;;;;;;15.17;6.50;;;7.20;99.90;;;;;;5137035;27;20471;-70
2023/12/20 08:15:32;;;;;;;11.27;4.83;;;7.20;99.90;;;;;;5136759;27;20446;-69
2023/12/20 08:17:59;;;;;;;15.07;6.90;;;7.20;99.90;;;;;;5136834;27;20473;-70
2023/12/20 08:20:25;;;;;;;14.27;5.27;;;7.20;99.90;;;;;;5136868;27;20844;-69
2023/12/20 08:22:54;;;;;;;22.17;7.00;;;7.20;99.90;;;;;;5137180;27;20438;-70
2023/12/20 08:25:22;;;;;;;15.90;6.20;;;7.20;99.90;;;;;;5136806;27;20442;-69
2023/12/20 08:27:49;;;;;;;19.90;5.80;;;7.20;99.90;;;;;;5118202;27;20482;-70
2023/12/20 08:30:17;;;;;;;23.23;6.13;;;7.20;99.90;;;;;;5135680;27;20454;-69
2023/12/20 08:32:44;;;;;;;20.30;6.40;;;7.20;99.90;;;;;;5136554;27;20449;-70
2023/12/20 08:35:10;;;;;;;11.50;4.90;;;7.20;99.90;;;;;;5136067;27;20445;-69
2023/12/20 08:37:37;;;;;;;12.10;5.27;;;7.20;99.90;;;;;;5135713;27;21031;-70
2023/12/20 08:40:07;;;;;;;19.47;7.10;;;7.20;99.90;;;;;;5116948;27;20498;-69
2023/12/20 08:42:34;;;;;;;13.93;6.00;;;7.20;99.90;;;;;;5135379;27;20448;-70
2023/12/20 08:45:00;;;;;;;20.23;5.70;;;7.20;99.90;;;;;;5135400;27;20441;-70
2023/12/20 08:47:27;;;;;;;14.40;5.40;;;7.30;99.90;;;;;;5136178;27;20881;-69
2023/12/20 08:49:56;;;;;;;12.03;4.83;;;7.30;99.90;;;;;;5135056;27;20465;-69
2023/12/20 08:52:23;;;;;;;18.50;5.03;;;7.30;99.90;;;;;;5134841;27;20532;-70
2023/12/20 08:54:51;;;;;;;19.57;5.00;;;7.30;99.90;;;;;;5135113;27;20974;-70
2023/12/20 08:57:20;;;;;;;9.67;4.77;;;7.30;99.90;;;;;;5134826;27;20438;-70
2023/12/20 08:59:47;;;;;;;11.80;4.90;;;7.40;99.90;;;;;;5134731;27;20462;-69
2023/12/20 09:02:15;;;;;;;16.20;5.23;;;7.40;99.90;;;;;;5134606;27;20442;-70
2023/12/20 09:04:42;;;;;;;16.13;6.23;;;7.40;99.90;;;;;;5116021;27;20481;-70
2023/12/20 09:07:21;;;;;;;12.43;4.47;;;7.40;99.90;;;;;;5134751;27;20434;-70
2023/12/20 09:09:48;;;;;;;14.30;5.50;;;7.40;99.90;;;;;;5134722;27;20865;-70
2023/12/20 09:12:14;;;;;;;16.73;3.77;;;7.50;99.90;;;;;;5134212;27;20460;-70
2023/12/20 09:14:42;;;;;;;22.30;5.03;;;7.50;99.90;;;;;;5134208;27;20960;-70
2023/12/20 09:17:11;;;;;;;11.17;4.43;;;7.60;99.90;;;;;;5134625;27;20434;-70
2023/12/20 09:19:38;;;;;;;11.57;4.67;;;7.50;99.90;;;;;;5134268;27;21028;-69
2023/12/20 09:22:05;;;;;;;12.80;4.27;;;7.60;99.90;;;;;;5133861;27;20897;-70
2023/12/20 09:24:32;;;;;;;9.00;4.60;;;7.60;99.90;;;;;;5131327;28;20445;-69
2023/12/20 09:26:59;;;;;;;13.93;5.00;;;7.60;99.90;;;;;;5137801;27;20448;-69
2023/12/20 09:29:26;;;;;;;17.23;5.03;;;7.60;99.90;;;;;;5138239;27;20461;-70
2023/12/20 09:31:54;;;;;;;16.57;5.20;;;7.60;99.90;;;;;;5137058;28;21081;-69
2023/12/20 09:34:21;;;;;;;11.07;3.80;;;7.50;99.90;;;;;;5134767;28;20434;-70
2023/12/20 09:36:47;;;;;;;11.93;4.70;;;7.60;99.90;;;;;;5134619;28;20442;-69
2023/12/20 09:39:14;;;;;;;10.77;4.27;;;7.50;99.90;;;;;;5134670;28;20478;-69
2023/12/20 09:41:46;;;;;;;14.53;4.00;;;7.60;99.90;;;;;;5134399;28;20477;-70
2023/12/20 09:44:17;;;;;;;14.30;4.47;;;7.60;99.90;;;;;;5135275;28;20426;-70
2023/12/20 09:46:45;;;;;;;10.10;3.80;;;7.50;99.90;;;;;;5134347;28;20870;-69
2023/12/20 09:49:15;;;;;;;14.33;5.27;;;7.60;99.90;;;;;;5116063;28;20462;-69
2023/12/20 09:51:42;;;;;;;12.93;3.80;;;7.70;99.90;;;;;;5134271;28;20434;-69
2023/12/20 09:54:10;;;;;;;14.20;4.50;;;7.70;99.90;;;;;;5133883;27;20835;-69
2023/12/20 09:56:38;;;;;;;7.03;3.50;;;7.70;99.90;;;;;;5137894;27;20445;-70
2023/12/20 09:59:05;;;;;;;11.90;4.23;;;7.70;99.90;;;;;;5137614;27;20446;-69
2023/12/20 10:01:32;;;;;;;9.80;3.40;;;7.80;99.90;;;;;;5138180;27;20482;-69
2023/12/20 10:04:02;;;;;;;10.97;4.00;;;7.80;99.90;;;;;;5138268;27;20502;-69
2023/12/20 10:06:30;;;;;;;17.77;4.07;;;7.70;99.90;;;;;;5119997;27;20468;-69
2023/12/20 10:08:57;;;;;;;12.20;3.53;;;7.80;99.90;;;;;;5137966;27;20445;-69
2023/12/20 10:11:24;;;;;;;12.47;4.23;;;7.90;99.90;;;;;;5138113;27;20438;-69
2023/12/20 10:13:51;;;;;;;13.30;3.67;;;7.90;99.90;;;;;;5137722;27;20934;-69
2023/12/20 10:16:17;;;;;;;15.07;3.97;;;7.90;99.90;;;;;;5137625;27;20437;-69
2023/12/20 10:18:46;;;;;;;14.00;4.33;;;7.80;99.90;;;;;;5138012;27;20469;-69
2023/12/20 10:21:13;;;;;;;14.30;3.63;;;7.90;99.90;;;;;;5138992;27;20569;-69
2023/12/20 10:23:41;;;;;;;13.53;3.70;;;8.00;99.90;;;;;;5138197;27;20434;-69
2023/12/20 10:26:09;;;;;;;13.53;3.90;;;8.00;99.90;;;;;;5138136;27;20842;-69
2023/12/20 10:28:37;;;;;;;11.57;3.50;;;8.00;99.90;;;;;;5137769;27;20441;-69
2023/12/20 10:31:04;;;;;;;13.23;3.83;;;7.90;99.90;;;;;;5137766;27;20458;-69
2023/12/20 10:33:32;;;;;;;14.87;4.10;;;7.90;99.90;;;;;;5137284;27;20446;-69
2023/12/20 10:35:59;;;;;;;6.67;3.00;;;7.80;99.90;;;;;;5137519;27;20434;-69
2023/12/20 10:38:26;;;;;;;8.97;3.50;;;7.90;99.90;;;;;;5137232;27;20441;-69
2023/12/20 10:40:57;;;;;;;10.73;4.13;;;7.90;99.90;;;;;;5137945;27;20557;-69
2023/12/20 10:43:26;;;;;;;13.53;3.47;;;7.90;99.90;;;;;;5137548;27;20425;-69
2023/12/20 10:45:53;;;;;;;16.20;4.03;;;7.90;99.90;;;;;;5137471;27;20442;-69
2023/12/20 10:48:21;;;;;;;18.60;4.10;;;7.90;99.90;;;;;;5137381;27;20437;-69
2023/12/20 10:50:48;;;;;;;14.27;4.07;;;7.90;99.90;;;;;;5137119;27;20489;-69
2023/12/20 10:53:16;;;;;;;13.57;4.03;;;7.90;99.90;;;;;;5137097;27;20472;-70
2023/12/20 10:55:45;;;;;;;11.50;4.20;;;8.00;99.90;;;;;;5136920;27;20456;-69
2023/12/20 10:58:15;;;;;;;13.00;3.90;;;8.00;99.90;;;;;;5119130;27;20442;-69
2023/12/20 11:00:44;;;;;;;11.67;3.70;;;8.10;99.90;;;;;;5118748;27;20465;-69
2023/12/20 11:03:13;;;;;;;9.00;4.00;;;8.10;99.90;;;;;;5137140;27;20818;-69
2023/12/20 11:05:45;;;;;;;10.07;3.40;;;8.20;99.90;;;;;;5136930;27;20498;-69
2023/12/20 11:08:21;;;;;;;12.67;3.80;;;8.20;99.90;;;;;;5135742;27;20906;-69
2023/12/20 11:10:56;;;;;;;9.23;3.40;;;8.10;99.90;;;;;;5136994;27;20951;-69
2023/12/20 11:13:31;;;;;;;16.33;4.17;;;8.20;99.90;;;;;;5136908;27;20425;-69
2023/12/20 11:15:58;;;;;;;9.37;3.27;;;8.30;99.90;;;;;;5136722;27;20414;-69
2023/12/20 11:18:30;;;;;;;11.73;3.57;;;8.20;99.90;;;;;;5136748;27;20450;-69
2023/12/20 11:21:01;;;;;;;11.00;4.60;;;8.20;99.90;;;;;;5136639;27;20530;-69
2023/12/20 11:23:28;;;;;;;11.00;3.23;;;8.10;99.90;;;;;;5136702;27;20463;-69
2023/12/20 11:25:58;;;;;;;11.40;3.97;;;8.10;99.90;;;;;;5136687;27;20562;-69
2023/12/20 11:28:27;;;;;;;15.07;3.87;;;8.00;99.90;;;;;;5118271;27;20998;-69
2023/12/20 11:30:56;;;;;;;10.17;3.40;;;8.10;99.90;;;;;;5136503;27;20460;-69
2023/12/20 11:33:23;;;;;;;9.20;3.23;;;8.00;99.90;;;;;;5136447;27;20469;-69
2023/12/20 11:35:50;;;;;;;12.10;3.80;;;8.00;99.90;;;;;;5136322;27;20523;-69
2023/12/20 11:38:17;;;;;;;11.47;3.83;;;8.00;99.90;;;;;;5143172;27;20418;-69
2023/12/20 11:40:44;;;;;;;11.40;3.87;;;8.10;99.90;;;;;;5146101;27;20466;-69
2023/12/20 11:43:11;;;;;;;13.80;4.23;;;8.10;99.90;;;;;;5146033;27;20468;-70
2023/12/20 11:45:51;;;;;;;14.30;3.73;;;8.10;99.90;;;;;;5145193;27;20442;-69
2023/12/20 11:48:18;;;;;;;12.60;4.03;;;8.10;99.90;;;;;;5144402;27;20422;-69
2023/12/20 11:50:46;;;;;;;16.93;5.20;;;8.10;99.90;;;;;;5142993;27;20472;-69
2023/12/20 11:53:13;;;;;;;10.13;4.00;;;8.10;99.90;;;;;;5125437;27;20453;-70
2023/12/20 11:55:39;;;;;;;12.57;4.00;;;8.10;99.90;;;;;;5142500;27;20438;-69
2023/12/20 11:58:06;;;;;;;15.13;5.63;;;8.00;99.90;;;;;;5141039;27;20445;-69
2023/12/20 12:00:33;;;;;;;7.33;3.90;;;8.00;99.90;;;;;;5139911;27;20465;-68
2023/12/20 12:03:03;;;;;;;13.17;4.40;;;8.00;99.90;;;;;;5138229;27;20480;-69
2023/12/20 12:05:32;;;;;;;12.17;4.80;;;8.00;99.90;;;;;;5137824;27;20465;-69
2023/12/20 12:07:59;;;;;;;15.57;3.97;;;8.10;99.90;;;;;;5137683;27;20473;-69
2023/12/20 12:10:25;;;;;;;12.83;4.30;;;8.00;99.90;;;;;;5137987;27;20466;-69
2023/12/20 12:12:54;;;;;;;16.60;4.80;;;8.00;99.90;;;;;;5137887;27;20434;-69
2023/12/20 12:15:21;;;;;;;13.93;4.30;;;7.90;99.90;;;;;;5118802;27;20502;-69
2023/12/20 12:17:54;;;;;;;23.10;4.83;;;8.00;99.90;;;;;;5136790;27;20473;-69
2023/12/20 12:20:23;;;;;;;13.70;4.47;;;8.00;99.90;;;;;;5137024;27;20486;-68
2023/12/20 12:22:59;;;;;;;11.93;4.40;;;8.00;99.90;;;;;;5136652;27;21006;-69
2023/12/20 12:25:25;;;;;;;19.53;5.20;;;8.10;99.90;;;;;;5136153;27;20461;-68
2023/12/20 12:27:52;;;;;;;11.67;4.70;;;8.00;99.90;;;;;;5136016;27;20445;-69
2023/12/20 12:30:19;;;;;;;10.73;4.70;;;8.10;99.90;;;;;;5135603;27;20466;-68
2023/12/20 12:32:46;;;;;;;17.40;5.10;;;8.20;99.90;;;;;;5135718;27;20442;-69
2023/12/20 12:35:13;;;;;;;10.03;4.33;;;8.20;99.90;;;;;;5135454;27;20442;-69
2023/12/20 12:37:42;;;;;;;11.53;5.50;;;8.10;99.90;;;;;;5135688;27;20445;-69
2023/12/20 12:40:11;;;;;;;18.13;4.80;;;8.10;99.90;;;;;;5135151;27;20864;-69
2023/12/20 12:42:39;;;;;;;19.20;4.20;;;8.10;99.90;;;;;;5135470;27;20474;-69
2023/12/20 12:45:07;;;;;;;11.23;4.20;;;8.10;99.90;;;;;;5117138;27;20452;-69
2023/12/20 12:47:34;;;;;;;11.03;4.00;;;8.00;99.90;;;;;;5135378;27;20446;-70
2023/12/20 12:50:01;;;;;;;12.47;4.53;;;8.10;99.90;;;;;;5135083;27;20489;-68